Terminal Aerodrome Forecast
Issued by NWS

Home | Current Version | Previous Version | Text Only | Print | Product List | Glossary On
Versions: 1 2 3 4 5 6 7 8 9 10 11 12 13 14
000
FTUS43 KGRB 190520
TAFATW
TAF
KATW 190520Z 1906/2006 20008KT P6SM BKN080 WS017/23040KT
     FM191000 19003KT P6SM OVC050
     FM191400 05005KT 4SM -DZ BR OVC023
     FM191700 05007G16KT 3SM -DZ BR OVC010
     FM192100 04012G20KT 3SM -FZRA BR OVC007=

USA.gov is the U.S. government's official web portal to all federal, state and local government web resources and services.